Time;durP1;ratioP1;P1;durP2;ratioP2;P2;SDS_P1;SDS_P2;PMS_P1;PMS_P2;Temp;Humidity;BMP_temperature;BMP_pressure;BME280_temperature;BME280_humidity;BME280_pressure;Samples;Min_cycle;Max_cycle;Signal;HPM_P1;HPM_P2
2023/08/02 00:01:15;;;;;;;6.55;4.85;;;;;;;25.32;51.11;98893.22;3158910;28;20052;-75
2023/08/02 00:02:45;;;;;;;10.05;5.80;;;;;;;25.34;50.67;98887.69;3155086;28;20052;-75
2023/08/02 00:04:17;;;;;;;7.22;4.90;;;;;;;25.34;50.61;98888.50;3146970;28;20592;-74
2023/08/02 00:05:53;;;;;;;6.38;5.47;;;;;;;25.34;51.01;98887.69;3156738;28;20056;-75
2023/08/02 00:07:25;;;;;;;6.97;4.80;;;;;;;25.27;50.92;98879.63;3158400;28;20052;-73
2023/08/02 00:08:55;;;;;;;7.60;5.47;;;;;;;25.27;51.54;98881.47;3146575;28;20583;-73
2023/08/02 00:10:27;;;;;;;5.82;5.03;;;;;;;25.24;51.63;98879.16;3155096;28;20168;-73
2023/08/02 00:11:59;;;;;;;7.95;5.10;;;;;;;25.22;51.73;98876.69;3153755;28;20181;-73
2023/08/02 00:13:30;;;;;;;8.55;5.22;;;;;;;25.22;51.50;98867.88;3158772;28;20055;-73
2023/08/02 00:15:04;;;;;;;7.28;4.88;;;;;;;25.24;51.34;98882.66;3158110;28;20112;-73
2023/08/02 00:16:35;;;;;;;7.25;5.47;;;;;;;25.21;51.92;98879.53;3143819;28;20052;-73
2023/08/02 00:18:07;;;;;;;7.45;5.28;;;;;;;25.19;51.73;98875.22;3150586;28;20390;-73
2023/08/02 00:19:38;;;;;;;7.25;5.30;;;;;;;25.17;51.84;98877.25;3157969;28;20109;-73
2023/08/02 00:21:10;;;;;;;9.48;5.63;;;;;;;25.17;51.96;98887.91;3158245;28;20120;-71
2023/08/02 00:22:40;;;;;;;7.60;5.43;;;;;;;25.17;52.37;98898.56;3158350;28;20059;-71
2023/08/02 00:24:12;;;;;;;7.57;4.78;;;;;;;25.16;52.41;98894.22;3146217;28;20544;-72
2023/08/02 00:25:44;;;;;;;5.97;5.22;;;;;;;25.15;52.17;98892.59;3158202;28;20037;-73
2023/08/02 00:27:15;;;;;;;6.32;5.20;;;;;;;25.15;52.12;98892.59;3153870;28;20401;-72
2023/08/02 00:28:47;;;;;;;6.68;5.57;;;;;;;25.15;52.45;98897.09;3158394;28;20048;-73
2023/08/02 00:30:19;;;;;;;11.20;5.20;;;;;;;25.17;52.43;98903.03;3158464;28;20609;-72
2023/08/02 00:31:51;;;;;;;6.80;4.93;;;;;;;25.15;52.23;98900.56;3157661;28;20125;-73
2023/08/02 00:33:21;;;;;;;6.15;5.00;;;;;;;25.14;52.80;98896.28;3157683;28;20048;-72
2023/08/02 00:34:55;;;;;;;6.95;5.45;;;;;;;25.13;52.59;98896.41;3155295;28;20052;-74
2023/08/02 00:36:26;;;;;;;11.07;5.65;;;;;;;25.12;52.86;98897.44;3158263;28;20432;-71
2023/08/02 00:37:57;;;;;;;7.63;5.20;;;;;;;25.10;52.62;98896.78;3156753;28;20048;-70
2023/08/02 00:39:28;;;;;;;6.85;5.22;;;;;;;25.12;52.78;98897.44;3152798;28;20495;-70
2023/08/02 00:41:04;;;;;;;9.95;5.57;;;;;;;25.13;52.46;98896.41;3153789;28;20077;-69
2023/08/02 00:42:35;;;;;;;7.18;5.60;;;;;;;25.11;53.05;98901.94;3158569;28;20132;-70
2023/08/02 00:44:07;;;;;;;8.77;5.80;;;;;;;25.11;52.65;98896.59;3153516;28;20555;-71
2023/08/02 00:45:40;;;;;;;9.35;5.60;;;;;;;25.12;52.58;98897.44;3148799;28;20052;-70
2023/08/02 00:47:11;;;;;;;5.85;5.22;;;;;;;25.07;52.93;98903.31;3141931;28;20055;-71
2023/08/02 00:48:45;;;;;;;6.80;5.32;;;;;;;25.05;53.04;98899.16;3158149;28;20493;-70
2023/08/02 00:50:17;;;;;;;6.60;5.43;;;;;;;25.02;53.04;98900.34;3158277;28;20050;-71
2023/08/02 00:51:48;;;;;;;8.48;5.38;;;;;;;25.02;53.09;98900.34;3155084;28;20048;-69
2023/08/02 00:53:21;;;;;;;8.23;5.95;;;;;;;25.03;53.27;98910.03;3154691;28;20044;-70
2023/08/02 00:54:53;;;;;;;7.90;5.22;;;;;;;25.01;53.13;98904.03;3154345;28;20557;-70
2023/08/02 00:56:24;;;;;;;7.22;5.13;;;;;;;25.01;53.53;98897.88;3158335;28;20048;-70
2023/08/02 00:57:57;;;;;;;7.15;5.20;;;;;;;24.99;53.61;98900.72;3158250;28;20060;-70
2023/08/02 00:59:28;;;;;;;7.05;5.90;;;;;;;24.94;53.49;98903.94;3150841;28;20628;-71
2023/08/02 01:01:07;;;;;;;8.60;5.38;;;;;;;24.94;53.46;98913.78;3156146;28;20055;-71
2023/08/02 01:02:38;;;;;;;7.47;5.25;;;;;;;24.94;53.99;98913.78;3157940;28;20635;-71
2023/08/02 01:04:09;;;;;;;10.18;5.53;;;;;;;24.94;54.13;98917.28;3148685;28;20059;-69
2023/08/02 01:05:46;;;;;;;8.00;5.90;;;;;;;24.94;53.99;98924.44;3154926;28;20059;-71
2023/08/02 01:07:38;;;;;;;7.53;5.15;;;;;;;24.89;53.80;98921.50;3157950;28;20476;-72
2023/08/02 01:09:24;;;;;;;6.22;4.90;;;;;;;24.84;54.41;98927.34;3147119;28;20555;-72
2023/08/02 01:11:04;;;;;;;6.28;4.80;;;;;;;24.81;54.13;98924.22;3133116;28;20080;-69
2023/08/02 01:12:38;;;;;;;8.18;5.35;;;;;;;24.77;54.52;98928.28;3133362;28;20426;-70
2023/08/02 01:14:13;;;;;;;16.15;5.47;;;;;;;24.73;54.85;98925.16;3145377;28;20048;-70
2023/08/02 01:15:45;;;;;;;6.20;5.28;;;;;;;24.71;54.72;98917.34;3150902;28;20121;-70
2023/08/02 01:17:18;;;;;;;8.82;5.22;;;;;;;24.72;54.49;98926.97;3156721;28;20132;-70
2023/08/02 01:18:50;;;;;;;7.68;5.60;;;;;;;24.70;54.87;98929.00;3157924;28;20098;-70
2023/08/02 01:20:23;;;;;;;8.13;5.38;;;;;;;24.69;54.93;98924.66;3146220;28;20106;-70
2023/08/02 01:21:54;;;;;;;10.13;5.53;;;;;;;24.65;54.68;98925.22;3154225;28;20060;-70
2023/08/02 01:23:26;;;;;;;9.27;5.53;;;;;;;24.63;54.91;98928.06;3152523;28;20153;-72
2023/08/02 01:24:59;;;;;;;9.05;6.18;;;;;;;24.65;54.78;98927.88;3152850;28;20055;-72
2023/08/02 01:26:33;;;;;;;8.00;5.32;;;;;;;24.68;54.82;98928.34;3156740;28;20385;-72
2023/08/02 01:28:11;;;;;;;6.85;5.20;;;;;;;24.67;54.54;98926.72;3152885;28;20044;-73
2023/08/02 01:29:45;;;;;;;6.63;5.53;;;;;;;24.67;54.70;98931.22;3156688;28;20055;-71
2023/08/02 01:31:17;;;;;;;6.70;5.53;;;;;;;24.67;54.64;98933.88;3151259;28;20134;-71
2023/08/02 01:32:49;;;;;;;7.57;5.50;;;;;;;24.70;55.12;98933.50;3157855;28;20112;-71
2023/08/02 01:34:22;;;;;;;6.93;5.20;;;;;;;24.71;54.71;98933.31;3157521;28;20060;-70
2023/08/02 01:35:55;;;;;;;6.63;5.43;;;;;;;24.73;54.82;98933.97;3157567;28;20044;-71
2023/08/02 01:37:27;;;;;;;7.07;5.27;;;;;;;24.71;55.07;98935.16;3157493;28;20043;-74
2023/08/02 01:38:57;;;;;;;7.25;4.95;;;;;;;24.69;54.73;98934.50;3154607;28;20048;-75
2023/08/02 01:40:29;;;;;;;6.55;4.93;;;;;;;24.68;55.32;98936.34;3157888;28;20072;-74
2023/08/02 01:42:00;;;;;;;9.05;6.03;;;;;;;24.69;54.90;98929.16;3147906;28;20110;-74
2023/08/02 01:43:32;;;;;;;10.25;5.00;;;;;;;24.70;54.96;98944.97;3152275;28;20447;-74
2023/08/02 01:45:04;;;;;;;7.32;5.30;;;;;;;24.71;55.27;98948.47;3132952;28;20049;-74
2023/08/02 01:46:35;;;;;;;9.35;5.25;;;;;;;24.70;55.15;98944.16;3137624;28;20139;-75
2023/08/02 01:48:07;;;;;;;7.57;5.20;;;;;;;24.72;55.38;98939.44;3153854;28;20131;-75
2023/08/02 01:49:37;;;;;;;8.40;5.55;;;;;;;24.71;54.91;98941.28;3157173;28;20525;-75
2023/08/02 01:51:11;;;;;;;8.10;5.97;;;;;;;24.72;55.41;98942.94;3157651;28;20048;-74
2023/08/02 01:52:43;;;;;;;6.93;5.70;;;;;;;24.71;55.47;98946.63;3149906;28;20063;-75
2023/08/02 01:54:13;;;;;;;9.40;5.60;;;;;;;24.71;55.47;98941.28;3151828;28;20055;-75
2023/08/02 01:55:45;;;;;;;12.15;6.13;;;;;;;24.71;55.48;98941.28;3149812;28;20048;-75
2023/08/02 01:57:16;;;;;;;8.25;5.90;;;;;;;24.72;55.05;98944.78;3151973;28;20059;-75
2023/08/02 01:58:48;;;;;;;7.53;5.40;;;;;;;24.71;55.12;98940.47;3157604;28;20070;-75
2023/08/02 02:00:19;;;;;;;9.45;5.53;;;;;;;24.70;55.22;98946.81;3157518;28;20056;-75
2023/08/02 02:01:51;;;;;;;10.93;6.28;;;;;;;24.70;55.57;98942.31;3157499;28;20374;-75
2023/08/02 02:03:21;;;;;;;9.32;5.90;;;;;;;24.69;55.41;98939.81;3154408;28;20048;-75
2023/08/02 02:04:53;;;;;;;7.78;5.30;;;;;;;24.69;55.40;98942.47;3148417;28;20048;-75
2023/08/02 02:06:25;;;;;;;9.80;5.65;;;;;;;24.71;55.52;98946.63;3156883;28;20501;-74
2023/08/02 02:07:57;;;;;;;10.52;6.05;;;;;;;24.67;55.20;98941.84;3152097;28;20052;-74
2023/08/02 02:09:28;;;;;;;7.68;5.68;;;;;;;24.66;55.34;98942.84;3144985;28;20055;-72
2023/08/02 02:11:00;;;;;;;9.57;5.65;;;;;;;24.67;55.44;98944.53;3144891;28;20052;-72
2023/08/02 02:12:30;;;;;;;7.53;5.40;;;;;;;24.64;55.83;98945.69;3145114;28;20509;-72
2023/08/02 02:14:02;;;;;;;7.57;5.60;;;;;;;24.60;55.50;98938.25;3155889;28;20044;-73
2023/08/02 02:15:33;;;;;;;7.90;5.72;;;;;;;24.54;55.50;98931.81;3154071;28;20052;-73
2023/08/02 02:17:05;;;;;;;14.15;6.65;;;;;;;24.52;56.16;98937.31;3157373;28;20409;-73
2023/08/02 02:18:36;;;;;;;9.70;6.00;;;;;;;24.52;55.84;98941.78;3157661;28;20048;-73
2023/08/02 02:20:09;;;;;;;9.00;5.93;;;;;;;24.53;56.03;98948.78;3149290;28;20087;-72
2023/08/02 02:21:41;;;;;;;9.70;6.55;;;;;;;24.51;56.03;98945.47;3152494;28;20071;-72
2023/08/02 02:23:13;;;;;;;8.18;5.57;;;;;;;24.49;55.95;98948.31;3149107;28;20558;-72
2023/08/02 02:24:45;;;;;;;9.25;5.78;;;;;;;24.47;56.13;98942.34;3151043;28;20051;-72
2023/08/02 02:26:16;;;;;;;9.88;6.28;;;;;;;24.47;56.25;98950.34;3153117;28;20040;-72
2023/08/02 02:27:47;;;;;;;8.93;6.00;;;;;;;24.47;56.12;98953.00;3149250;28;20048;-72
2023/08/02 02:29:18;;;;;;;8.95;6.10;;;;;;;24.48;56.51;98951.97;3156888;28;20048;-74
2023/08/02 02:30:50;;;;;;;8.95;5.90;;;;;;;24.49;56.16;98960.78;3157413;28;20056;-71
2023/08/02 02:32:21;;;;;;;15.18;6.63;;;;;;;24.47;56.25;98958.31;3156887;28;20079;-71
2023/08/02 02:33:53;;;;;;;8.30;5.90;;;;;;;24.44;56.37;98963.19;3157554;28;20052;-71
2023/08/02 02:35:25;;;;;;;13.00;6.75;;;;;;;24.42;56.38;98962.50;3156569;28;20056;-70
2023/08/02 02:36:58;;;;;;;11.68;6.20;;;;;;;24.39;56.55;98958.34;3153595;28;20055;-71
2023/08/02 02:38:31;;;;;;;8.05;5.80;;;;;;;24.38;56.91;98962.03;3147136;28;20055;-71
2023/08/02 02:40:02;;;;;;;9.82;6.47;;;;;;;24.37;56.82;98962.19;3159830;28;20534;-71
2023/08/02 02:41:34;;;;;;;11.43;6.50;;;;;;;24.37;56.65;98963.00;3160018;28;20055;-71
2023/08/02 02:43:05;;;;;;;7.40;6.22;;;;;;;24.37;56.94;98959.53;3158138;28;20048;-70
2023/08/02 02:44:43;;;;;;;9.13;6.05;;;;;;;24.38;56.31;98966.53;3157348;28;20047;-72
2023/08/02 02:46:14;;;;;;;14.85;6.07;;;;;;;24.35;56.79;98970.38;3145952;28;20048;-71
2023/08/02 02:47:45;;;;;;;8.68;6.28;;;;;;;24.35;56.85;98973.03;3152707;28;20837;-71
2023/08/02 02:49:16;;;;;;;10.57;5.40;;;;;;;24.35;57.06;98975.69;3159604;28;20468;-71
2023/08/02 02:50:48;;;;;;;7.65;6.05;;;;;;;24.34;56.99;98974.00;3160273;28;20048;-70
2023/08/02 02:52:21;;;;;;;8.48;5.75;;;;;;;24.35;56.72;98981.00;3154646;28;20055;-71
2023/08/02 02:53:52;;;;;;;12.15;6.07;;;;;;;24.29;56.85;98971.91;3156307;28;20097;-71
2023/08/02 02:55:23;;;;;;;7.70;5.50;;;;;;;24.29;57.33;98977.22;3159261;28;20060;-71
2023/08/02 02:56:55;;;;;;;11.88;6.20;;;;;;;24.30;56.79;98970.06;3159828;28;20040;-70
2023/08/02 02:58:26;;;;;;;7.47;6.00;;;;;;;24.28;57.24;98980.91;3159799;28;20250;-70
2023/08/02 02:59:57;;;;;;;13.10;5.97;;;;;;;24.26;57.19;98974.91;3159049;28;20052;-70
2023/08/02 03:01:28;;;;;;;7.68;5.57;;;;;;;24.23;57.19;98972.59;3159433;28;20052;-70
2023/08/02 03:03:00;;;;;;;9.07;5.47;;;;;;;24.20;57.04;98977.47;3159499;28;20055;-70
2023/08/02 03:04:32;;;;;;;10.07;6.05;;;;;;;24.19;57.08;98981.94;3147126;28;20488;-70
2023/08/02 03:06:03;;;;;;;11.85;6.38;;;;;;;24.20;57.50;98975.63;3145357;28;20044;-70
2023/08/02 03:07:36;;;;;;;8.18;6.03;;;;;;;24.21;57.60;98979.94;3159291;28;20058;-70
2023/08/02 03:09:07;;;;;;;;;;;;;;;24.03;57.40;98979.38;3159387;28;20044;-71
2023/08/02 03:10:38;;;;;;;7.30;6.00;;;;;;;24.10;57.26;98977.66;3159677;28;19947;-71
2023/08/02 03:12:09;;;;;;;11.20;5.97;;;;;;;24.14;57.16;98978.16;3157953;28;20052;-71
2023/08/02 03:13:43;;;;;;;8.75;5.55;;;;;;;24.17;57.40;98980.47;3150904;28;20056;-71
2023/08/02 03:15:14;;;;;;;8.60;5.75;;;;;;;24.18;57.62;98980.28;3152925;28;20486;-72
2023/08/02 03:16:46;;;;;;;8.50;6.10;;;;;;;24.19;57.60;98981.94;3154174;28;20511;-72
2023/08/02 03:18:16;;;;;;;8.13;5.15;;;;;;;24.19;57.56;98975.78;3159058;28;20056;-72
2023/08/02 03:19:48;;;;;;;11.40;5.45;;;;;;;24.19;57.23;98973.94;3154629;28;20041;-71
2023/08/02 03:21:19;;;;;;;9.15;5.57;;;;;;;24.21;57.39;98984.44;3155160;28;20060;-71
2023/08/02 03:22:52;;;;;;;11.00;5.95;;;;;;;24.21;57.34;98982.59;3155932;28;20630;-72
2023/08/02 03:24:23;;;;;;;8.85;5.53;;;;;;;24.19;57.41;98981.94;3150346;28;20051;-71
2023/08/02 03:25:55;;;;;;;10.25;5.72;;;;;;;24.19;57.83;98983.75;3159065;28;20051;-74
2023/08/02 03:27:27;;;;;;;6.97;5.50;;;;;;;24.17;57.84;98975.97;3159224;28;20048;-73
2023/08/02 03:28:58;;;;;;;9.80;5.85;;;;;;;24.17;57.37;98975.97;3159112;28;20051;-75
2023/08/02 03:30:29;;;;;;;11.45;5.60;;;;;;;24.17;57.92;98975.97;3159111;28;20104;-72
2023/08/02 03:32:00;;;;;;;8.80;5.53;;;;;;;24.18;57.80;98974.13;3159436;28;20052;-73
2023/08/02 03:33:32;;;;;;;9.65;6.35;;;;;;;24.17;57.88;98975.16;3156924;28;20071;-73
2023/08/02 03:35:03;;;;;;;10.57;5.35;;;;;;;24.14;57.93;98981.66;3148490;28;20052;-73
2023/08/02 03:36:36;;;;;;;8.07;5.53;;;;;;;24.13;57.86;98977.31;3157067;28;20519;-73
2023/08/02 03:38:09;;;;;;;8.27;5.57;;;;;;;24.14;58.08;98984.31;3155958;28;20076;-73
2023/08/02 03:39:40;;;;;;;8.38;6.43;;;;;;;24.14;58.06;98986.97;3155739;28;20051;-73
2023/08/02 03:41:12;;;;;;;7.82;5.90;;;;;;;24.13;57.53;98979.97;3159000;28;20113;-73
2023/08/02 03:42:43;;;;;;;11.38;5.90;;;;;;;24.11;58.07;98987.31;3159075;28;20094;-73
2023/08/02 03:44:14;;;;;;;7.88;6.10;;;;;;;24.07;58.22;98980.69;3149104;28;20452;-73
2023/08/02 03:45:48;;;;;;;9.23;6.65;;;;;;;24.06;57.85;98977.19;3153527;28;20067;-72
2023/08/02 03:47:19;;;;;;;11.10;5.40;;;;;;;24.09;58.30;98984.00;3144254;28;20509;-73
2023/08/02 03:48:51;;;;;;;8.20;5.72;;;;;;;24.12;57.94;98986.31;3150043;28;20141;-72
2023/08/02 03:50:22;;;;;;;8.00;5.97;;;;;;;24.13;58.33;98985.28;3154481;28;20063;-72
2023/08/02 03:51:54;;;;;;;11.07;5.95;;;;;;;24.13;57.85;98981.81;3155321;28;20052;-72
2023/08/02 03:53:27;;;;;;;14.68;5.78;;;;;;;24.14;57.88;98986.16;3155931;28;20446;-72
2023/08/02 03:54:59;;;;;;;7.82;6.03;;;;;;;24.11;58.34;98987.31;3158845;28;20044;-72
2023/08/02 03:56:30;;;;;;;11.18;6.10;;;;;;;24.09;58.03;98991.97;3158988;28;20055;-72
2023/08/02 03:58:02;;;;;;;6.97;5.68;;;;;;;24.13;58.19;98990.63;3158956;28;20048;-72
2023/08/02 03:59:32;;;;;;;10.75;8.63;;;;;;;24.13;58.03;98989.78;3158576;28;20052;-72
2023/08/02 04:01:04;;;;;;;9.88;6.75;;;;;;;24.13;57.65;98989.78;3158866;28;20134;-72
2023/08/02 04:02:35;;;;;;;12.93;8.70;;;;;;;24.13;57.52;98989.78;3149170;28;20060;-72
2023/08/02 04:04:07;;;;;;;16.27;9.68;;;;;;;24.14;57.31;98986.16;3147204;28;20063;-72
2023/08/02 04:05:38;;;;;;;17.20;10.95;;;;;;;24.14;57.20;98992.28;3155304;28;20044;-72
2023/08/02 04:07:10;;;;;;;16.17;10.20;;;;;;;24.12;56.82;98985.50;3158504;28;20189;-73
2023/08/02 04:08:42;;;;;;;14.98;10.73;;;;;;;24.11;56.67;98995.31;3155168;28;20127;-72
2023/08/02 04:10:14;;;;;;;15.70;11.35;;;;;;;24.10;56.38;98990.97;3158852;28;20078;-72
2023/08/02 04:11:45;;;;;;;17.63;10.65;;;;;;;24.10;56.24;98990.97;3158060;28;20052;-73
2023/08/02 04:13:17;;;;;;;19.52;11.63;;;;;;;24.09;56.45;98989.31;3151182;28;20116;-72
2023/08/02 04:14:48;;;;;;;18.33;11.52;;;;;;;24.12;55.89;98990.81;3158750;28;20047;-73
2023/08/02 04:16:19;;;;;;;17.95;11.15;;;;;;;24.10;55.94;98985.66;3151535;28;20127;-73
2023/08/02 04:17:50;;;;;;;15.35;11.23;;;;;;;24.09;55.76;98994.66;3158692;28;20056;-73
2023/08/02 04:19:22;;;;;;;17.17;11.52;;;;;;;24.11;55.97;98997.13;3151644;28;20221;-73
2023/08/02 04:20:53;;;;;;;16.98;11.55;;;;;;;24.09;55.56;98997.31;3157569;28;20469;-72
2023/08/02 04:22:25;;;;;;;19.65;11.15;;;;;;;24.08;55.27;98998.31;3158214;28;20044;-73
2023/08/02 04:23:57;;;;;;;22.35;12.57;;;;;;;24.07;55.36;98989.50;3151513;28;20048;-73
2023/08/02 04:25:29;;;;;;;16.02;11.32;;;;;;;24.04;55.80;98997.00;3158686;28;20105;-73
2023/08/02 04:27:00;;;;;;;20.35;10.82;;;;;;;24.05;55.76;98993.34;3158270;28;20048;-72
2023/08/02 04:28:31;;;;;;;18.58;11.88;;;;;;;24.02;55.45;98989.22;3158019;28;20066;-73
2023/08/02 04:30:02;;;;;;;22.75;12.35;;;;;;;24.03;55.52;98995.34;3153887;28;20055;-73
2023/08/02 04:31:34;;;;;;;16.55;11.50;;;;;;;24.02;55.96;98989.22;3152614;28;20524;-71
2023/08/02 04:33:05;;;;;;;16.33;11.40;;;;;;;24.05;55.93;98994.19;3149926;28;20049;-73
2023/08/02 04:34:37;;;;;;;21.08;12.32;;;;;;;24.06;55.50;98998.47;3151782;28;20070;-73
2023/08/02 04:36:08;;;;;;;27.45;12.65;;;;;;;24.10;55.66;99000.78;3157683;28;20048;-74
2023/08/02 04:37:40;;;;;;;24.75;11.77;;;;;;;24.07;55.65;99000.13;3157998;28;20186;-74
2023/08/02 04:39:13;;;;;;;21.38;11.80;;;;;;;24.09;55.59;98994.66;3154404;28;20533;-74
2023/08/02 04:40:45;;;;;;;30.05;12.95;;;;;;;24.07;55.65;98991.31;3157792;28;20055;-73
2023/08/02 04:42:17;;;;;;;26.58;11.27;;;;;;;24.09;55.78;98983.19;3158214;28;20056;-75
2023/08/02 04:43:48;;;;;;;18.75;11.48;;;;;;;24.12;55.67;98988.97;3144303;28;20740;-73
2023/08/02 04:45:20;;;;;;;25.40;11.90;;;;;;;24.11;55.67;98987.31;3154070;28;20052;-76
2023/08/02 04:46:51;;;;;;;40.88;22.67;;;;;;;24.14;55.70;98994.13;3149769;28;20063;-77
2023/08/02 04:48:22;;;;;;;23.38;12.43;;;;;;;24.17;55.48;98991.94;3154936;28;20041;-76
2023/08/02 04:49:57;;;;;;;22.00;11.23;;;;;;;24.19;55.54;98984.59;3151941;28;20040;-75
2023/08/02 04:51:28;;;;;;;22.80;14.68;;;;;;;24.18;55.86;98990.94;3155534;28;20048;-68
2023/08/02 04:53:00;;;;;;;19.33;10.73;;;;;;;24.22;55.88;98986.06;3149182;28;20040;-70
2023/08/02 04:54:32;;;;;;;18.27;10.55;;;;;;;24.25;55.77;98988.38;3149441;28;20048;-72
2023/08/02 04:56:10;;;;;;;20.33;10.95;;;;;;;24.24;55.75;98992.06;3152118;28;20048;-71
2023/08/02 04:57:41;;;;;;;18.88;11.27;;;;;;;24.25;55.42;98997.22;3154020;28;20056;-70
2023/08/02 04:59:13;;;;;;;23.60;10.68;;;;;;;24.25;55.51;98991.03;3146558;28;20567;-71
2023/08/02 05:00:44;;;;;;;20.17;11.03;;;;;;;24.22;55.95;98992.22;3156799;28;20059;-70
2023/08/02 05:02:16;;;;;;;22.30;10.65;;;;;;;24.26;55.71;98990.88;3157325;28;20351;-71
2023/08/02 05:03:48;;;;;;;26.95;10.40;;;;;;;24.27;55.45;98992.53;3152308;28;20090;-71
2023/08/02 05:05:20;;;;;;;20.42;9.63;;;;;;;24.33;55.31;98998.97;3151233;28;20135;-70
2023/08/02 05:06:54;;;;;;;18.60;10.52;;;;;;;24.36;55.61;98993.28;3158047;28;20574;-74
2023/08/02 05:08:25;;;;;;;;;;;;;;;24.19;55.56;98992.56;3155052;28;20056;-73
2023/08/02 05:09:59;;;;;;;19.25;10.15;;;;;;;24.32;55.72;98999.16;3157779;28;20435;-73
2023/08/02 05:11:31;;;;;;;14.00;9.50;;;;;;;24.40;55.32;98999.94;3157542;28;20044;-73
2023/08/02 05:13:04;;;;;;;13.30;8.98;;;;;;;24.51;55.47;98998.69;3146863;28;20078;-74
2023/08/02 05:14:36;;;;;;;17.10;9.32;;;;;;;24.57;55.19;99000.66;3157812;28;20050;-71
2023/08/02 05:16:12;;;;;;;16.50;9.43;;;;;;;24.64;55.01;98998.94;3154227;28;20075;-74
2023/08/02 05:17:44;;;;;;;14.98;9.75;;;;;;;24.66;55.21;99002.22;3133108;28;20053;-72
2023/08/02 05:19:15;;;;;;;18.27;9.55;;;;;;;24.69;55.04;99004.53;3157138;28;20512;-70
2023/08/02 05:20:47;;;;;;;15.50;9.40;;;;;;;24.71;54.92;99002.53;3157836;28;20052;-71
2023/08/02 05:22:18;;;;;;;15.65;9.60;;;;;;;24.76;55.27;99007.34;3156809;28;20048;-71
2023/08/02 05:23:50;;;;;;;15.20;8.85;;;;;;;24.81;55.23;98998.78;3152962;28;20047;-70
2023/08/02 05:25:27;;;;;;;18.37;9.03;;;;;;;24.88;54.93;98997.06;3145587;28;20537;-68
2023/08/02 05:26:59;;;;;;;18.45;9.63;;;;;;;24.94;55.11;99004.34;3148766;28;20302;-67
2023/08/02 05:28:30;;;;;;;17.60;9.88;;;;;;;25.01;54.48;99009.75;3151582;28;20052;-65
2023/08/02 05:30:02;;;;;;;15.30;10.40;;;;;;;25.06;54.32;99013.53;3157589;28;20162;-67
2023/08/02 05:31:34;;;;;;;16.23;9.27;;;;;;;25.12;54.14;99012.81;3156617;28;20059;-66
2023/08/02 05:33:07;;;;;;;71.75;45.33;;;;;;;25.19;53.89;99019.09;3157484;28;20536;-65
2023/08/02 05:34:37;;;;;;;102.18;57.30;;;;;;;25.25;54.03;99011.38;3156904;28;20072;-65
2023/08/02 05:36:11;;;;;;;24.25;16.25;;;;;;;25.33;54.10;99017.44;3157104;28;20052;-65
2023/08/02 05:37:45;;;;;;;21.17;14.48;;;;;;;25.42;53.77;99018.19;3157567;28;20044;-64
2023/08/02 05:39:16;;;;;;;17.45;9.63;;;;;;;25.51;53.87;99027.75;3148661;28;20063;-64
2023/08/02 05:40:49;;;;;;;13.57;8.25;;;;;;;25.55;53.28;99028.19;3153000;28;20043;-64
2023/08/02 05:42:21;;;;;;;;;;;;;;;25.42;53.94;99028.84;3157318;28;20047;-64
2023/08/02 05:43:52;;;;;;;11.35;8.40;;;;;;;25.52;53.71;99024.06;3145833;28;19975;-63
2023/08/02 05:45:24;;;;;;;12.02;9.00;;;;;;;25.55;53.49;99021.03;3156438;28;20552;-62
2023/08/02 05:46:55;;;;;;;11.55;8.43;;;;;;;25.61;53.20;99020.28;3139997;28;20060;-63
2023/08/02 05:48:28;;;;;;;12.88;9.07;;;;;;;25.70;53.16;99022.84;3156800;28;20209;-62
2023/08/02 05:50:00;;;;;;;14.57;9.18;;;;;;;25.68;52.87;99012.38;3157280;28;20048;-62
2023/08/02 05:51:31;;;;;;;17.10;8.52;;;;;;;25.75;52.91;99020.47;3155492;28;20052;-62
2023/08/02 05:53:03;;;;;;;11.98;9.23;;;;;;;25.81;52.68;99019.72;3155289;28;20056;-62
2023/08/02 05:54:35;;;;;;;9.95;7.75;;;;;;;25.86;52.37;99028.03;3151638;28;20106;-62
2023/08/02 05:56:08;;;;;;;10.98;8.18;;;;;;;25.95;52.53;99020.75;3151597;28;20097;-63
2023/08/02 05:57:39;;;;;;;14.68;7.97;;;;;;;26.06;51.76;99018.41;3154723;28;20505;-63
2023/08/02 05:59:14;;;;;;;13.80;8.50;;;;;;;26.17;51.88;99011.75;3156694;28;20052;-63
2023/08/02 06:00:45;;;;;;;15.68;8.00;;;;;;;26.24;51.49;99014.50;3155275;28;20044;-64
2023/08/02 06:02:17;;;;;;;12.25;8.32;;;;;;;26.36;51.45;99012.97;3156455;28;20421;-63
2023/08/02 06:03:48;;;;;;;10.23;7.20;;;;;;;26.46;50.90;99018.00;3150868;28;20495;-63
2023/08/02 06:05:20;;;;;;;14.00;7.82;;;;;;;26.52;50.52;99022.59;3150535;28;20052;-63
2023/08/02 06:06:51;;;;;;;15.05;8.05;;;;;;;26.56;50.22;99023.88;3156988;28;20052;-63
2023/08/02 06:08:23;;;;;;;11.40;7.75;;;;;;;26.57;50.18;99022.88;3151558;28;20117;-63
2023/08/02 06:09:54;;;;;;;12.07;8.57;;;;;;;26.67;49.90;99015.34;3148188;28;20086;-63
2023/08/02 06:11:28;;;;;;;16.02;7.72;;;;;;;26.76;49.62;99008.03;3155113;28;20469;-63
2023/08/02 06:12:58;;;;;;;;;;;;;;;26.73;49.69;99009.22;3156362;28;20097;-63
2023/08/02 06:14:30;;;;;;;12.55;7.85;;;;;;;26.98;49.05;99014.16;3156718;28;19941;-63
2023/08/02 06:16:01;;;;;;;12.40;8.48;;;;;;;27.19;48.18;99010.66;3149685;28;20052;-63
2023/08/02 06:17:33;;;;;;;10.43;7.28;;;;;;;27.40;47.81;99013.25;3155634;28;20048;-62
2023/08/02 06:19:04;;;;;;;10.50;7.90;;;;;;;27.63;47.59;99012.94;3157089;28;20101;-62
2023/08/02 06:20:36;;;;;;;13.10;8.10;;;;;;;27.83;47.01;99013.06;3156336;28;20124;-62
2023/08/02 06:22:08;;;;;;;;;;;;;;;27.88;46.86;99013.28;3156109;28;20044;-63
2023/08/02 06:23:40;;;;;;;9.82;7.80;;;;;;;28.03;46.55;99015.81;3145957;28;19920;-63
2023/08/02 06:25:16;;;;;;;15.88;7.30;;;;;;;28.17;45.81;99005.97;3153288;28;20055;-63
2023/08/02 06:26:49;;;;;;;11.65;7.65;;;;;;;28.24;45.44;99003.28;3156870;28;20048;-63
2023/08/02 06:28:22;;;;;;;10.68;8.38;;;;;;;28.28;45.59;99005.38;3156255;28;20158;-63
2023/08/02 06:29:55;;;;;;;11.13;7.82;;;;;;;28.33;45.26;99002.06;3156205;28;20072;-63
2023/08/02 06:32:01;;;;;;;13.60;8.83;;;;;;;28.35;45.28;99005.38;3154472;28;20051;-63
2023/08/02 06:33:42;;;;;;;12.75;9.02;;;;;;;28.33;45.36;99010.94;3148407;28;20629;-63
2023/08/02 06:35:13;;;;;;;13.88;9.65;;;;;;;28.31;45.10;99002.28;3156427;28;20094;-64
2023/08/02 06:36:45;;;;;;;12.73;8.98;;;;;;;28.25;44.98;99000.44;3150617;28;20429;-63
2023/08/02 06:38:16;;;;;;;15.30;9.77;;;;;;;28.20;44.65;99002.88;3149294;28;20052;-62
2023/08/02 06:39:55;;;;;;;11.43;9.05;;;;;;;28.18;44.70;99004.94;3153058;28;20094;-64
2023/08/02 06:41:26;;;;;;;13.98;9.32;;;;;;;28.07;44.82;99005.50;3156488;28;20449;-63
2023/08/02 06:43:00;;;;;;;11.35;8.63;;;;;;;28.08;44.88;99005.31;3155936;28;20043;-64
2023/08/02 06:44:32;;;;;;;18.65;10.23;;;;;;;28.03;45.32;99006.94;3152074;28;20235;-63
2023/08/02 06:46:24;;;;;;;14.38;8.27;;;;;;;27.94;45.32;99006.31;3144387;28;20060;-64
2023/08/02 06:49:44;;;;;;;21.50;8.73;;;;;;;27.87;45.33;99002.78;3152209;28;20440;-63
2023/08/02 06:51:25;;;;;;;18.87;8.43;;;;;;;27.92;45.29;99003.00;3147136;28;20445;-63
2023/08/02 06:52:56;;;;;;;17.38;9.73;;;;;;;27.99;45.51;99009.22;3154486;28;20314;-64
2023/08/02 06:54:28;;;;;;;13.35;9.18;;;;;;;28.04;45.27;99006.75;3156816;28;20545;-63
2023/08/02 06:55:59;;;;;;;15.02;9.63;;;;;;;28.06;45.04;99015.41;3156125;28;20051;-63
2023/08/02 06:57:32;;;;;;;13.80;9.40;;;;;;;28.02;45.13;99013.34;3154776;28;20044;-62
2023/08/02 06:59:04;;;;;;;12.70;9.60;;;;;;;27.91;45.68;99009.38;3148189;28;20048;-64
2023/08/02 07:00:40;;;;;;;18.98;9.73;;;;;;;27.83;45.46;99015.75;3151317;28;20048;-62
2023/08/02 07:02:23;;;;;;;13.93;10.02;;;;;;;27.84;45.53;99017.41;3151098;28;20538;-64
2023/08/02 07:03:58;;;;;;;17.50;9.35;;;;;;;27.75;45.69;99021.22;3149388;28;20040;-63
2023/08/02 07:05:31;;;;;;;17.13;8.85;;;;;;;27.75;45.77;99013.22;3142777;28;20241;-62
2023/08/02 07:07:05;;;;;;;;;;;;;;;27.66;45.95;99019.75;3145539;28;20058;-66
2023/08/02 07:08:53;;;;;;;14.82;8.80;;;;;;;27.73;45.79;99023.28;3143738;28;19927;-65
2023/08/02 07:10:26;;;;;;;19.33;8.80;;;;;;;27.77;45.78;99021.84;3156434;28;21312;-64
2023/08/02 07:11:58;;;;;;;15.85;9.18;;;;;;;27.83;46.08;99017.56;3156570;28;20075;-65
2023/08/02 07:13:29;;;;;;;13.17;8.87;;;;;;;27.96;45.63;99012.28;3156707;28;20525;-65
2023/08/02 07:15:37;;;;;;;12.90;9.20;;;;;;;28.06;45.39;99014.56;3157142;28;20672;-66